Federacion, Argentina
Current Conditions -  °F | °C
As of 7:00 PM on Saturday 25 Oct 2014 (Local Time) from SUSO Reporting Station
Clear Clear  
Wind Chill: 82°   Ceiling: Unl
Heat Index: 83°   Visibility: 6mi
Dew Point: 61°   Wind: 6mph
Humidity: 48%   Direction: 100°E
Pressure: 29.83"   Gusts: NA
Location:  31°S, 57.9°W
Report Text: SUSO 252200Z 10005KT CAVOK 28/16 Q1010
Loading
Personal Weather Stations






























Interactive Weather Map
Tropical Storm Tracking
New forecast layout! Learn more

10-Day Weather Forecast

Advertisements
Track Severe Weather on mobile